createdAt,value
2018-03-02T00:02:21.003Z,31.37
2018-03-02T00:04:50.068Z,27.37
2018-03-02T00:07:19.167Z,27.10
2018-03-02T00:09:48.293Z,27.93
2018-03-02T00:12:17.363Z,26.00
2018-03-02T00:14:46.446Z,24.90
2018-03-02T00:17:15.508Z,24.00
2018-03-02T00:19:44.629Z,25.30
2018-03-02T00:22:13.703Z,27.00
2018-03-02T00:24:42.755Z,23.70
2018-03-02T00:27:11.841Z,23.97
2018-03-02T00:29:40.903Z,22.53
2018-03-02T00:32:09.978Z,23.10
2018-03-02T00:34:39.055Z,22.70
2018-03-02T00:37:08.875Z,24.63
2018-03-02T00:39:38.711Z,23.80
2018-03-02T00:42:07.774Z,23.40
2018-03-02T00:44:37.643Z,24.60
2018-03-02T00:47:06.729Z,25.10
2018-03-02T00:49:35.782Z,24.50
2018-03-02T00:52:05.631Z,24.60
2018-03-02T00:54:34.705Z,24.47
2018-03-02T00:57:04.691Z,23.07
2018-03-02T00:59:34.530Z,23.63
2018-03-02T01:02:03.605Z,22.97
2018-03-02T01:04:33.471Z,23.27
2018-03-02T01:07:02.536Z,24.57
2018-03-02T01:09:31.588Z,21.83
2018-03-02T01:12:00.675Z,22.17
2018-03-02T01:14:29.768Z,23.80
2018-03-02T01:16:58.902Z,23.97
2018-03-02T01:19:27.992Z,22.13
2018-03-02T01:21:57.815Z,22.70
2018-03-02T01:24:26.897Z,22.13
2018-03-02T01:26:56.714Z,24.00
2018-03-02T01:29:26.566Z,22.37
2018-03-02T01:31:55.644Z,25.57
2018-03-02T01:34:24.791Z,23.77
2018-03-02T01:36:53.960Z,22.87
2018-03-02T01:39:23.044Z,26.27
2018-03-02T01:41:52.216Z,22.47
2018-03-02T01:46:55.509Z,22.93
2018-03-02T01:49:24.641Z,22.70
2018-03-02T01:51:53.694Z,21.60
2018-03-02T01:54:23.551Z,20.80
2018-03-02T01:56:52.649Z,20.63
2018-03-02T01:59:21.797Z,23.13
2018-03-02T02:01:50.868Z,20.13
2018-03-02T02:04:19.971Z,19.37
2018-03-02T02:06:49.040Z,23.23
2018-03-02T02:09:18.146Z,18.23
2018-03-02T02:11:47.290Z,19.77
2018-03-02T02:14:17.156Z,21.20
2018-03-02T02:16:46.232Z,19.90
2018-03-02T02:19:15.361Z,23.57
2018-03-02T02:21:44.433Z,22.70
2018-03-02T02:24:13.534Z,21.47
2018-03-02T02:26:42.680Z,23.40
2018-03-02T02:29:12.546Z,23.67
2018-03-02T02:31:41.684Z,23.93
2018-03-02T02:34:10.788Z,21.37
2018-03-02T02:36:40.663Z,20.60
2018-03-02T02:39:09.740Z,19.93
2018-03-02T02:41:38.848Z,21.13
2018-03-02T02:44:07.933Z,18.37
2018-03-02T02:46:37.006Z,22.40
2018-03-02T02:49:06.681Z,20.10
2018-03-02T02:51:36.530Z,21.40
2018-03-02T02:54:05.649Z,21.00
2018-03-02T02:56:34.747Z,21.43
2018-03-02T02:59:03.849Z,23.77
2018-03-02T03:01:32.926Z,20.00
2018-03-02T03:04:02.039Z,18.57
2018-03-02T03:06:31.117Z,18.93
2018-03-02T03:09:00.190Z,18.80
2018-03-02T03:11:29.275Z,21.00
2018-03-02T03:13:58.356Z,18.60
2018-03-02T03:16:28.231Z,18.80
2018-03-02T03:18:57.334Z,19.00
2018-03-02T03:21:26.426Z,18.93
2018-03-02T03:23:55.546Z,18.70
2018-03-02T03:26:25.398Z,19.13
2018-03-02T03:28:54.483Z,22.30
2018-03-02T03:31:23.563Z,20.10
2018-03-02T03:33:52.671Z,19.30
2018-03-02T03:36:21.763Z,19.57
2018-03-02T03:38:50.866Z,18.70
2018-03-02T03:41:19.943Z,20.60
2018-03-02T03:43:49.077Z,19.90
2018-03-02T03:46:18.180Z,20.93
2018-03-02T03:48:48.100Z,19.53
2018-03-02T03:51:18.079Z,19.47
2018-03-02T03:53:47.131Z,19.57
2018-03-02T03:56:16.251Z,18.80
2018-03-02T03:58:46.091Z,18.30
2018-03-02T04:01:15.238Z,19.23
2018-03-02T04:03:44.320Z,18.60
2018-03-02T04:06:13.398Z,18.60
2018-03-02T04:08:42.715Z,20.17
2018-03-02T04:11:11.860Z,19.17
2018-03-02T04:13:41.708Z,18.30
2018-03-02T04:16:10.859Z,21.20
2018-03-02T04:18:39.936Z,21.10
2018-03-02T04:21:09.767Z,21.13
2018-03-02T04:23:38.907Z,19.30
2018-03-02T04:26:07.979Z,19.80
2018-03-02T04:28:37.058Z,19.83
2018-03-02T04:31:06.452Z,22.77
2018-03-02T04:33:35.524Z,22.23
2018-03-02T04:36:05.359Z,21.73
2018-03-02T04:38:34.537Z,21.17
2018-03-02T04:41:03.615Z,22.43
2018-03-02T04:43:33.067Z,22.30
2018-03-02T04:46:02.147Z,21.10
2018-03-02T04:48:31.235Z,21.47
2018-03-02T04:51:01.146Z,22.03
2018-03-02T04:53:31.006Z,20.17
2018-03-02T04:56:00.071Z,22.63
2018-03-02T04:58:29.763Z,23.40
2018-03-02T05:00:59.597Z,21.70
2018-03-02T05:03:28.678Z,23.40
2018-03-02T05:05:58.820Z,21.90
2018-03-02T05:08:27.903Z,20.90
2018-03-02T05:10:56.974Z,22.10
2018-03-02T05:13:27.133Z,21.83
2018-03-02T05:15:56.195Z,23.67
2018-03-02T05:18:26.071Z,20.33
2018-03-02T05:20:55.142Z,22.87
2018-03-02T05:23:24.231Z,22.33
2018-03-02T05:25:53.611Z,21.70
2018-03-02T05:28:22.694Z,21.10
2018-03-02T05:30:52.526Z,23.03
2018-03-02T05:33:21.918Z,21.07
2018-03-02T05:35:50.995Z,19.00
2018-03-02T05:38:20.907Z,21.60
2018-03-02T05:40:50.112Z,20.17
2018-03-02T05:43:19.958Z,23.07
2018-03-02T05:45:49.240Z,23.03
2018-03-02T05:48:18.362Z,22.77
2018-03-02T05:50:47.445Z,21.10
2018-03-02T05:53:16.523Z,21.03
2018-03-02T05:55:45.958Z,22.80
2018-03-02T05:58:15.024Z,20.77
2018-03-02T06:00:44.107Z,18.80
2018-03-02T06:03:14.015Z,18.20
2018-03-02T06:05:43.852Z,21.33
2018-03-02T06:08:12.919Z,19.67
2018-03-02T06:10:42.861Z,18.47
2018-03-02T06:13:11.934Z,20.43
2018-03-02T06:15:41.798Z,44.37
2018-03-02T06:18:11.158Z,58.30
2018-03-02T06:20:40.284Z,28.93
2018-03-02T06:23:09.415Z,22.87
2018-03-02T06:25:38.765Z,29.43
2018-03-02T06:28:07.836Z,38.23
2018-03-02T06:30:37.678Z,27.57
2018-03-02T06:33:07.081Z,20.20
2018-03-02T06:35:36.155Z,19.90
2018-03-02T06:38:05.251Z,20.93
2018-03-02T06:40:35.182Z,22.07
2018-03-02T06:43:04.255Z,19.17
2018-03-02T06:45:34.094Z,22.43
2018-03-02T06:48:03.636Z,20.80
2018-03-02T06:50:32.713Z,23.00
2018-03-02T06:53:01.795Z,21.80
2018-03-02T06:55:30.936Z,21.80
2018-03-02T06:58:00.026Z,22.70
2018-03-02T07:00:29.115Z,20.53
2018-03-02T07:02:58.239Z,19.33
2018-03-02T07:05:28.098Z,17.70
2018-03-02T07:07:57.168Z,19.37
2018-03-02T07:10:26.664Z,20.73
2018-03-02T07:12:55.737Z,20.97
2018-03-02T07:15:25.636Z,20.53
2018-03-02T07:17:54.737Z,20.33
2018-03-02T07:20:23.816Z,20.07
2018-03-02T07:22:52.892Z,19.30
2018-03-02T07:25:23.342Z,22.70
2018-03-02T07:27:52.423Z,20.60
2018-03-02T07:30:21.509Z,20.37
2018-03-02T07:32:50.653Z,19.50
2018-03-02T07:35:20.545Z,17.83
2018-03-02T07:37:50.009Z,20.77
2018-03-02T07:40:19.288Z,20.67
2018-03-02T07:42:48.598Z,18.37
2018-03-02T07:45:17.842Z,17.50
2018-03-02T07:47:47.739Z,19.30
2018-03-02T07:50:16.863Z,19.50
2018-03-02T07:52:45.971Z,19.10
2018-03-02T07:55:15.808Z,18.47
2018-03-02T07:57:44.919Z,20.57
2018-03-02T08:00:13.993Z,20.07
2018-03-02T08:02:43.113Z,18.17
2018-03-02T08:05:12.190Z,20.43
2018-03-02T08:07:42.295Z,19.03
2018-03-02T08:10:12.147Z,18.90
2018-03-02T08:12:41.222Z,20.40
2018-03-02T08:15:10.457Z,19.10
2018-03-02T08:17:39.561Z,18.43
2018-03-02T08:20:08.698Z,20.00
2018-03-02T08:22:37.811Z,19.20
2018-03-02T08:25:06.874Z,18.70
2018-03-02T08:27:37.040Z,17.57
2018-03-02T08:30:06.167Z,19.27
2018-03-02T08:32:35.295Z,19.87
2018-03-02T08:35:05.144Z,47.27
2018-03-02T08:37:34.296Z,21.67
2018-03-02T08:40:04.129Z,18.77
2018-03-02T08:42:33.199Z,20.23
2018-03-02T08:45:03.348Z,17.77
2018-03-02T08:47:32.417Z,18.50
2018-03-02T08:50:02.283Z,19.60
2018-03-02T08:52:31.428Z,17.57
2018-03-02T08:55:01.280Z,20.53
2018-03-02T08:57:30.360Z,19.53
2018-03-02T08:59:59.572Z,18.60
2018-03-02T09:02:28.673Z,19.03
2018-03-02T09:04:57.766Z,21.10
2018-03-02T09:07:27.161Z,17.10
2018-03-02T09:09:56.285Z,18.33
2018-03-02T09:12:25.340Z,18.60
2018-03-02T09:14:55.609Z,18.43
2018-03-02T09:17:24.700Z,15.47
2018-03-02T09:19:53.863Z,16.50
2018-03-02T09:22:23.100Z,15.93
2018-03-02T09:24:52.242Z,18.30
2018-03-02T09:27:21.352Z,17.70
2018-03-02T09:29:50.631Z,17.13
2018-03-02T09:32:19.738Z,16.93
2018-03-02T09:34:48.820Z,15.57
2018-03-02T09:37:18.105Z,17.60
2018-03-02T09:39:47.146Z,15.90
2018-03-02T09:42:16.218Z,17.20
2018-03-02T09:44:45.426Z,16.70
2018-03-02T09:47:14.522Z,16.87
2018-03-02T09:49:43.595Z,16.60
2018-03-02T09:52:13.015Z,16.47
2018-03-02T09:54:42.098Z,14.70
2018-03-02T09:57:11.184Z,16.83
2018-03-02T09:59:41.422Z,17.13
2018-03-02T10:02:10.487Z,19.07
2018-03-02T10:04:40.359Z,17.90
2018-03-02T10:07:09.519Z,17.70
2018-03-02T10:09:38.590Z,18.27
2018-03-02T10:12:08.435Z,17.60
2018-03-02T10:14:37.824Z,16.63
2018-03-02T10:17:06.941Z,17.97
2018-03-02T10:19:36.036Z,16.80
2018-03-02T10:22:05.432Z,17.57
2018-03-02T10:24:34.491Z,18.50
2018-03-02T10:27:04.348Z,17.40
2018-03-02T10:29:33.732Z,19.27
2018-03-02T10:32:02.799Z,19.77
2018-03-02T10:34:32.646Z,18.30
2018-03-02T10:37:01.787Z,19.30
2018-03-02T10:39:30.859Z,17.73
2018-03-02T10:42:00.036Z,19.13
2018-03-02T10:44:29.133Z,16.40
2018-03-02T10:46:59.151Z,19.23
2018-03-02T10:49:28.277Z,28.47
2018-03-02T10:51:57.384Z,23.00
2018-03-02T10:54:26.470Z,19.17
2018-03-02T10:56:55.584Z,19.10
2018-03-02T10:59:25.443Z,17.57
2018-03-02T11:01:54.538Z,15.30
2018-03-02T11:17:45.448Z,19.50
2018-03-02T11:20:14.534Z,20.50
2018-03-02T11:22:43.630Z,21.97
2018-03-02T11:25:12.750Z,24.10
2018-03-02T11:27:41.887Z,44.27
2018-03-02T11:30:10.988Z,25.93
2018-03-02T11:32:40.088Z,63.67
2018-03-02T11:35:09.206Z,26.17
2018-03-02T11:37:38.313Z,22.70
2018-03-02T11:40:07.417Z,21.90
2018-03-02T11:42:36.517Z,22.50
2018-03-02T11:45:05.594Z,22.13
2018-03-02T11:47:34.711Z,21.90
2018-03-02T11:50:03.797Z,23.67
2018-03-02T11:52:33.602Z,24.57
2018-03-02T11:55:02.712Z,21.43
2018-03-02T11:57:31.820Z,23.07
2018-03-02T12:00:00.900Z,19.90
2018-03-02T12:02:30.028Z,19.87
2018-03-02T12:04:59.894Z,20.60
2018-03-02T12:07:28.972Z,21.90
2018-03-02T12:09:58.041Z,21.50
2018-03-02T12:12:27.190Z,28.50
2018-03-02T12:14:56.311Z,24.97
2018-03-02T12:17:26.155Z,22.80
2018-03-02T12:19:55.245Z,23.03
2018-03-02T12:22:24.375Z,23.40
2018-03-02T12:24:53.455Z,23.23
2018-03-02T12:27:22.564Z,23.83
2018-03-02T12:29:51.675Z,23.97
2018-03-02T12:32:20.882Z,23.17
2018-03-02T12:34:50.096Z,23.53
2018-03-02T12:37:19.223Z,24.43
2018-03-02T12:39:48.303Z,25.00
2018-03-02T12:42:17.391Z,25.13
2018-03-02T12:44:47.251Z,23.03
2018-03-02T12:47:16.374Z,25.30
2018-03-02T12:49:45.511Z,25.30
2018-03-02T12:52:14.571Z,23.27
2018-03-02T12:54:43.668Z,26.30
2018-03-02T12:57:12.790Z,27.70
2018-03-02T12:59:41.890Z,23.80
2018-03-02T13:02:10.983Z,27.10
2018-03-02T13:04:40.073Z,22.60
2018-03-02T13:07:09.950Z,20.40
2018-03-02T13:09:39.050Z,23.83
2018-03-02T13:12:08.116Z,22.73
2018-03-02T13:14:37.243Z,24.77
2018-03-02T13:17:06.345Z,24.10
2018-03-02T13:19:35.474Z,25.00
2018-03-02T13:22:04.577Z,24.40
2018-03-02T13:24:33.652Z,25.00
2018-03-02T13:27:22.172Z,25.20
2018-03-02T13:29:51.301Z,24.13
2018-03-02T13:32:21.155Z,27.40
2018-03-02T13:48:45.038Z,24.10
2018-03-02T13:51:14.128Z,24.00
2018-03-02T13:53:43.211Z,26.57
2018-03-02T13:56:30.306Z,25.97
2018-03-02T13:58:59.390Z,26.40
2018-03-02T14:01:28.487Z,24.67
2018-03-02T14:04:15.452Z,29.30
2018-03-02T14:06:44.568Z,25.83
2018-03-02T14:09:14.427Z,25.57
2018-03-02T14:11:43.566Z,26.50
2018-03-02T14:14:12.680Z,24.80
2018-03-02T14:16:42.535Z,25.60
2018-03-02T14:19:11.615Z,25.87
2018-03-02T14:21:40.711Z,24.80
2018-03-02T14:24:09.851Z,23.27
2018-03-02T14:26:38.972Z,22.53
2018-03-02T14:29:08.815Z,23.07
2018-03-02T14:31:37.926Z,24.50
2018-03-02T14:34:07.055Z,23.83
2018-03-02T14:36:36.126Z,26.27
2018-03-02T14:39:06.096Z,22.87
2018-03-02T14:41:35.939Z,26.73
2018-03-02T14:44:05.032Z,24.60
2018-03-02T14:46:34.226Z,25.10
2018-03-02T14:49:03.360Z,21.90
2018-03-02T14:51:33.306Z,22.47
2018-03-02T14:54:03.205Z,24.40
2018-03-02T14:56:33.078Z,29.17
2018-03-02T14:59:02.160Z,29.57
2018-03-02T15:01:31.277Z,33.67
2018-03-02T15:04:00.389Z,34.23
2018-03-02T15:06:29.484Z,33.43
2018-03-02T15:08:58.588Z,30.80
2018-03-02T15:11:27.660Z,32.07
2018-03-02T15:13:56.744Z,32.60
2018-03-02T15:16:25.879Z,28.00
2018-03-02T15:18:54.955Z,32.03
2018-03-02T15:21:24.020Z,35.60
2018-03-02T15:23:53.180Z,34.53
2018-03-02T15:26:23.046Z,35.60
2018-03-02T15:28:52.137Z,35.40
2018-03-02T15:31:22.122Z,45.30
2018-03-02T15:33:51.198Z,43.77
2018-03-02T15:36:21.037Z,38.47
2018-03-02T15:38:50.185Z,37.13
2018-03-02T15:41:19.271Z,38.27
2018-03-02T15:43:48.360Z,36.87
2018-03-02T15:46:17.559Z,34.50
2018-03-02T15:48:46.645Z,34.27
2018-03-02T15:51:15.916Z,34.33
2018-03-02T15:53:45.066Z,34.07
2018-03-02T15:56:14.154Z,33.10
2018-03-02T15:58:43.282Z,35.07
2018-03-02T16:01:13.189Z,34.67
2018-03-02T16:03:43.049Z,34.07
2018-03-02T16:06:12.147Z,32.60
2018-03-02T16:08:41.271Z,32.17
2018-03-02T16:11:10.404Z,32.40
2018-03-02T16:13:39.492Z,32.93
2018-03-02T16:16:09.384Z,31.57
2018-03-02T16:18:38.465Z,30.43
2018-03-02T16:21:07.547Z,31.13
2018-03-02T16:23:36.663Z,29.90
2018-03-02T16:26:05.823Z,30.10
2018-03-02T16:28:34.895Z,30.77
2018-03-02T16:31:04.002Z,28.27
2018-03-02T16:33:33.122Z,27.20
2018-03-02T16:36:02.198Z,26.47
2018-03-02T16:38:31.274Z,28.30
2018-03-02T16:41:00.396Z,26.80
2018-03-02T16:43:29.491Z,29.63
2018-03-02T16:45:58.595Z,27.57
2018-03-02T16:48:27.684Z,27.37
2018-03-02T16:50:56.797Z,89.17
2018-03-02T16:53:25.896Z,90.57
2018-03-02T16:55:55.041Z,92.77
2018-03-02T16:58:24.111Z,37.13
2018-03-02T17:00:53.981Z,27.57
2018-03-02T17:03:23.102Z,25.17
2018-03-02T17:05:52.201Z,25.07
2018-03-02T17:08:21.300Z,23.40
2018-03-02T17:10:51.193Z,25.83
2018-03-02T17:13:20.312Z,26.17
2018-03-02T17:15:49.404Z,23.97
2018-03-02T17:18:18.515Z,27.40
2018-03-02T17:20:48.370Z,29.97
2018-03-02T17:23:17.494Z,28.50
2018-03-02T17:25:47.931Z,35.57
2018-03-02T17:28:17.017Z,30.00
2018-03-02T17:30:46.171Z,29.53
2018-03-02T17:33:15.272Z,27.20
2018-03-02T17:35:44.374Z,26.80
2018-03-02T17:38:13.492Z,26.07
2018-03-02T17:40:42.575Z,25.27
2018-03-02T17:43:11.703Z,24.30
2018-03-02T17:45:41.559Z,27.80
2018-03-02T17:48:10.682Z,30.60
2018-03-02T17:50:39.804Z,32.50
2018-03-02T17:53:08.887Z,31.30
2018-03-02T17:55:38.016Z,32.70
2018-03-02T17:58:07.886Z,28.27
2018-03-02T18:00:37.028Z,31.40
2018-03-02T18:03:06.921Z,29.60
2018-03-02T18:05:36.052Z,33.50
2018-03-02T18:08:05.174Z,32.97
2018-03-02T18:10:34.362Z,72.63
2018-03-02T18:13:03.596Z,61.00
2018-03-02T18:15:32.675Z,38.63
2018-03-02T18:18:01.813Z,34.47
2018-03-02T18:20:31.965Z,35.47
2018-03-02T18:23:01.215Z,36.90
2018-03-02T18:25:30.300Z,36.20
2018-03-02T18:27:59.435Z,35.50
2018-03-02T18:30:29.287Z,38.23
2018-03-02T18:32:58.367Z,33.60
2018-03-02T18:35:27.480Z,31.40
2018-03-02T18:37:56.605Z,35.47
2018-03-02T18:40:25.701Z,74.53
2018-03-02T18:42:55.596Z,36.40
2018-03-02T18:45:24.695Z,32.37
2018-03-02T18:47:53.778Z,32.33
2018-03-02T18:50:22.959Z,28.87
2018-03-02T18:52:52.057Z,32.23
2018-03-02T18:55:21.172Z,40.43
2018-03-02T18:57:50.328Z,46.67
2018-03-02T19:00:19.438Z,48.70
2018-03-02T19:02:48.548Z,37.57
2018-03-02T19:05:17.669Z,36.83
2018-03-02T19:07:46.760Z,31.43
2018-03-02T19:10:15.864Z,33.10
2018-03-02T19:12:44.946Z,27.83
2018-03-02T19:15:14.064Z,28.83
2018-03-02T19:17:43.919Z,27.43
2018-03-02T19:20:13.043Z,28.70
2018-03-02T19:22:42.125Z,28.20
2018-03-02T19:25:11.260Z,26.97
2018-03-02T19:27:41.175Z,29.60
2018-03-02T19:30:10.240Z,27.90
2018-03-02T19:32:39.354Z,29.20
2018-03-02T19:35:08.475Z,30.60
2018-03-02T19:37:38.349Z,30.70
2018-03-02T19:40:07.471Z,32.80
2018-03-02T19:42:37.331Z,33.90
2018-03-02T19:45:06.445Z,32.63
2018-03-02T19:47:35.524Z,40.07
2018-03-02T19:50:04.652Z,43.50
2018-03-02T19:52:33.776Z,44.90
2018-03-02T19:55:03.619Z,42.63
2018-03-02T19:57:32.742Z,42.03
2018-03-02T20:00:01.850Z,38.47
2018-03-02T20:02:30.952Z,36.53
2018-03-02T20:05:00.065Z,33.50
2018-03-02T20:07:29.912Z,36.07
2018-03-02T20:10:01.053Z,33.37
2018-03-02T20:12:30.258Z,34.87
2018-03-02T20:14:59.391Z,36.33
2018-03-02T20:17:28.487Z,35.03
2018-03-02T20:19:58.326Z,37.10
2018-03-02T20:22:28.204Z,37.90
2018-03-02T20:24:57.289Z,35.30
2018-03-02T20:27:26.396Z,38.70
2018-03-02T20:29:55.524Z,40.43
2018-03-02T20:32:25.427Z,40.27
2018-03-02T20:34:54.571Z,40.37
2018-03-02T20:37:23.675Z,41.90
2018-03-02T20:39:52.844Z,38.20
2018-03-02T20:42:21.927Z,42.47
2018-03-02T20:44:51.814Z,42.07
2018-03-02T20:47:20.885Z,45.30
2018-03-02T20:49:49.987Z,43.00
2018-03-02T20:52:19.069Z,41.40
2018-03-02T20:54:48.206Z,41.70
2018-03-02T20:57:17.312Z,44.03
2018-03-02T20:59:47.228Z,43.60
2018-03-02T21:02:17.080Z,44.10
2018-03-02T21:04:46.191Z,42.67
2018-03-02T21:07:15.269Z,46.10
2018-03-02T21:09:44.392Z,45.07
2018-03-02T21:12:13.473Z,42.97
2018-03-02T21:14:43.571Z,41.20
2018-03-02T21:17:12.666Z,40.80
2018-03-02T21:19:41.823Z,40.23
2018-03-02T21:22:11.716Z,43.07
2018-03-02T21:24:40.786Z,41.93
2018-03-02T21:27:09.902Z,43.50
2018-03-02T21:29:39.020Z,43.10
2018-03-02T21:32:08.153Z,44.03
2018-03-02T21:34:37.361Z,42.10
2018-03-02T21:37:06.441Z,42.80
2018-03-02T21:39:35.506Z,47.20
2018-03-02T21:42:04.649Z,44.30
2018-03-02T21:44:33.747Z,44.60
2018-03-02T21:47:02.812Z,46.13
2018-03-02T21:49:32.007Z,44.37
2018-03-02T21:52:01.524Z,42.87
2018-03-02T21:54:30.615Z,42.80
2018-03-02T21:56:59.776Z,42.07
2018-03-02T21:59:28.896Z,42.10
2018-03-02T22:01:57.974Z,46.40
2018-03-02T22:04:27.160Z,45.87
2018-03-02T22:06:56.235Z,43.63
2018-03-02T22:09:25.326Z,63.10
2018-03-02T22:11:54.670Z,46.60
2018-03-02T22:14:24.013Z,40.67
2018-03-02T22:16:53.088Z,41.17
2018-03-02T22:19:22.200Z,41.87
2018-03-02T22:21:51.298Z,43.13
2018-03-02T22:24:20.405Z,42.67
2018-03-02T22:26:49.480Z,40.43
2018-03-02T22:29:18.575Z,41.80
2018-03-02T22:31:47.709Z,38.47
2018-03-02T22:34:16.768Z,39.13
2018-03-02T22:36:45.858Z,38.80
2018-03-02T22:39:14.965Z,37.67
2018-03-02T22:41:44.059Z,37.77
2018-03-02T22:44:13.141Z,36.03
2018-03-02T22:46:42.246Z,35.57
2018-03-02T22:49:11.330Z,36.47
2018-03-02T22:51:40.436Z,38.30
2018-03-02T22:54:09.518Z,35.27
2018-03-02T22:56:38.639Z,39.23
2018-03-02T22:59:07.764Z,36.73
2018-03-02T23:01:36.876Z,36.97
2018-03-02T23:04:06.736Z,36.23
2018-03-02T23:06:35.876Z,36.00
2018-03-02T23:09:04.983Z,37.60
2018-03-02T23:11:34.837Z,40.70
2018-03-02T23:14:03.933Z,37.87
2018-03-02T23:16:33.027Z,37.47
2018-03-02T23:19:02.123Z,40.20
2018-03-02T23:21:32.009Z,39.50
2018-03-02T23:24:02.666Z,39.27
2018-03-02T23:26:31.747Z,40.47
2018-03-02T23:29:00.862Z,39.57
2018-03-02T23:31:29.954Z,39.33
2018-03-02T23:33:59.055Z,41.97
2018-03-02T23:36:28.151Z,37.10
2018-03-02T23:38:57.239Z,37.70
2018-03-02T23:41:26.319Z,39.43
2018-03-02T23:43:55.423Z,36.10
2018-03-02T23:46:24.517Z,40.00
2018-03-02T23:48:53.590Z,37.47
2018-03-02T23:51:22.691Z,39.17
2018-03-02T23:53:51.786Z,40.30
2018-03-02T23:56:20.890Z,41.10
2018-03-02T23:58:49.974Z,40.03
